sensor_id;sensor_type;location;lat;lon;timestamp;P1;durP1;ratioP1;P2;durP2;ratioP2
38379;SDS011;38377;47.418;18.882;2022-12-13T00:00:13;17.27;;;10.73;;
38379;SDS011;38377;47.418;18.882;2022-12-13T00:02:40;18.87;;;11.83;;
38379;SDS011;38377;47.418;18.882;2022-12-13T00:05:06;17.53;;;10.53;;
38379;SDS011;38377;47.418;18.882;2022-12-13T00:07:35;17.27;;;10.40;;
38379;SDS011;38377;47.418;18.882;2022-12-13T00:10:01;20.07;;;12.43;;
38379;SDS011;38377;47.418;18.882;2022-12-13T00:12:27;16.87;;;11.03;;
38379;SDS011;38377;47.418;18.882;2022-12-13T00:14:53;18.83;;;11.30;;
38379;SDS011;38377;47.418;18.882;2022-12-13T00:17:18;21.30;;;12.57;;
38379;SDS011;38377;47.418;18.882;2022-12-13T00:19:45;18.23;;;11.67;;
38379;SDS011;38377;47.418;18.882;2022-12-13T00:22:11;19.20;;;11.47;;
38379;SDS011;38377;47.418;18.882;2022-12-13T00:24:37;18.13;;;12.30;;
38379;SDS011;38377;47.418;18.882;2022-12-13T00:27:03;19.23;;;11.07;;
38379;SDS011;38377;47.418;18.882;2022-12-13T00:29:29;22.77;;;12.40;;
38379;SDS011;38377;47.418;18.882;2022-12-13T00:31:54;24.83;;;13.17;;
38379;SDS011;38377;47.418;18.882;2022-12-13T00:34:20;20.93;;;13.10;;
38379;SDS011;38377;47.418;18.882;2022-12-13T00:36:46;23.57;;;14.10;;
38379;SDS011;38377;47.418;18.882;2022-12-13T00:39:12;22.27;;;13.43;;
38379;SDS011;38377;47.418;18.882;2022-12-13T00:41:40;23.20;;;13.77;;
38379;SDS011;38377;47.418;18.882;2022-12-13T00:44:08;19.90;;;13.83;;
38379;SDS011;38377;47.418;18.882;2022-12-13T00:46:36;22.63;;;14.00;;
38379;SDS011;38377;47.418;18.882;2022-12-13T00:49:02;21.67;;;12.80;;
38379;SDS011;38377;47.418;18.882;2022-12-13T00:51:29;20.53;;;11.67;;
38379;SDS011;38377;47.418;18.882;2022-12-13T00:53:56;20.97;;;11.57;;
38379;SDS011;38377;47.418;18.882;2022-12-13T00:56:24;19.37;;;11.53;;
38379;SDS011;38377;47.418;18.882;2022-12-13T00:58:51;21.67;;;12.80;;
38379;SDS011;38377;47.418;18.882;2022-12-13T01:01:18;20.60;;;12.40;;
38379;SDS011;38377;47.418;18.882;2022-12-13T01:03:45;21.43;;;13.03;;
38379;SDS011;38377;47.418;18.882;2022-12-13T01:06:16;20.30;;;13.03;;
38379;SDS011;38377;47.418;18.882;2022-12-13T01:08:44;21.00;;;12.20;;
38379;SDS011;38377;47.418;18.882;2022-12-13T01:11:10;20.87;;;12.17;;
38379;SDS011;38377;47.418;18.882;2022-12-13T01:13:37;23.23;;;13.63;;
38379;SDS011;38377;47.418;18.882;2022-12-13T01:16:04;21.30;;;12.50;;
38379;SDS011;38377;47.418;18.882;2022-12-13T01:18:32;23.77;;;13.60;;
38379;SDS011;38377;47.418;18.882;2022-12-13T01:23:37;23.33;;;12.73;;
38379;SDS011;38377;47.418;18.882;2022-12-13T01:26:03;24.73;;;14.20;;
38379;SDS011;38377;47.418;18.882;2022-12-13T01:28:30;23.23;;;13.23;;
38379;SDS011;38377;47.418;18.882;2022-12-13T01:30:58;22.10;;;13.13;;
38379;SDS011;38377;47.418;18.882;2022-12-13T01:33:25;19.90;;;12.47;;
38379;SDS011;38377;47.418;18.882;2022-12-13T01:35:52;23.50;;;14.37;;
38379;SDS011;38377;47.418;18.882;2022-12-13T01:38:18;20.10;;;12.57;;
38379;SDS011;38377;47.418;18.882;2022-12-13T01:40:48;24.40;;;13.50;;
38379;SDS011;38377;47.418;18.882;2022-12-13T01:45:53;22.13;;;12.73;;
38379;SDS011;38377;47.418;18.882;2022-12-13T01:48:26;21.43;;;13.13;;
38379;SDS011;38377;47.418;18.882;2022-12-13T01:50:56;20.73;;;13.23;;
38379;SDS011;38377;47.418;18.882;2022-12-13T01:53:27;21.27;;;12.70;;
38379;SDS011;38377;47.418;18.882;2022-12-13T01:55:57;22.47;;;13.00;;
38379;SDS011;38377;47.418;18.882;2022-12-13T01:58:29;20.20;;;13.10;;
38379;SDS011;38377;47.418;18.882;2022-12-13T02:00:56;21.07;;;13.17;;
38379;SDS011;38377;47.418;18.882;2022-12-13T02:03:24;21.93;;;12.43;;
38379;SDS011;38377;47.418;18.882;2022-12-13T02:05:52;23.53;;;13.70;;
38379;SDS011;38377;47.418;18.882;2022-12-13T02:08:22;22.37;;;11.60;;
38379;SDS011;38377;47.418;18.882;2022-12-13T02:10:49;22.53;;;12.60;;
38379;SDS011;38377;47.418;18.882;2022-12-13T02:13:15;24.30;;;12.60;;
38379;SDS011;38377;47.418;18.882;2022-12-13T02:35:05;24.27;;;13.63;;
38379;SDS011;38377;47.418;18.882;2022-12-13T02:40:19;23.03;;;13.17;;
38379;SDS011;38377;47.418;18.882;2022-12-13T02:42:53;23.87;;;13.33;;
38379;SDS011;38377;47.418;18.882;2022-12-13T02:45:23;21.47;;;12.73;;
38379;SDS011;38377;47.418;18.882;2022-12-13T02:47:57;21.43;;;13.67;;
38379;SDS011;38377;47.418;18.882;2022-12-13T02:50:26;21.67;;;13.10;;
38379;SDS011;38377;47.418;18.882;2022-12-13T02:52:54;23.07;;;13.87;;
38379;SDS011;38377;47.418;18.882;2022-12-13T02:55:20;23.57;;;14.17;;
38379;SDS011;38377;47.418;18.882;2022-12-13T02:57:46;22.80;;;12.57;;
38379;SDS011;38377;47.418;18.882;2022-12-13T03:02:54;24.70;;;14.33;;
38379;SDS011;38377;47.418;18.882;2022-12-13T03:10:51;20.15;;;11.27;;
38379;SDS011;38377;47.418;18.882;2022-12-13T03:13:32;22.83;;;13.10;;
38379;SDS011;38377;47.418;18.882;2022-12-13T03:19:00;26.00;;;14.57;;
38379;SDS011;38377;47.418;18.882;2022-12-13T03:21:28;24.70;;;12.97;;
38379;SDS011;38377;47.418;18.882;2022-12-13T03:24:01;27.17;;;14.40;;
38379;SDS011;38377;47.418;18.882;2022-12-13T03:26:27;25.40;;;14.17;;
38379;SDS011;38377;47.418;18.882;2022-12-13T03:28:53;24.10;;;13.43;;
38379;SDS011;38377;47.418;18.882;2022-12-13T03:31:19;25.93;;;13.77;;
38379;SDS011;38377;47.418;18.882;2022-12-13T03:33:45;23.03;;;13.03;;
38379;SDS011;38377;47.418;18.882;2022-12-13T03:36:11;25.93;;;13.10;;
38379;SDS011;38377;47.418;18.882;2022-12-13T03:38:37;27.17;;;13.73;;
38379;SDS011;38377;47.418;18.882;2022-12-13T03:41:05;25.53;;;13.30;;
38379;SDS011;38377;47.418;18.882;2022-12-13T03:43:37;22.63;;;13.03;;
38379;SDS011;38377;47.418;18.882;2022-12-13T03:46:04;26.57;;;14.47;;
38379;SDS011;38377;47.418;18.882;2022-12-13T03:48:30;26.20;;;13.80;;
38379;SDS011;38377;47.418;18.882;2022-12-13T03:50:56;29.43;;;14.77;;
38379;SDS011;38377;47.418;18.882;2022-12-13T03:53:22;27.13;;;15.20;;
38379;SDS011;38377;47.418;18.882;2022-12-13T03:55:49;30.50;;;14.70;;
38379;SDS011;38377;47.418;18.882;2022-12-13T03:58:14;25.20;;;14.37;;
38379;SDS011;38377;47.418;18.882;2022-12-13T04:00:40;28.63;;;15.47;;
38379;SDS011;38377;47.418;18.882;2022-12-13T04:03:06;26.37;;;15.13;;
38379;SDS011;38377;47.418;18.882;2022-12-13T04:05:31;27.27;;;15.10;;
38379;SDS011;38377;47.418;18.882;2022-12-13T04:07:57;25.70;;;14.73;;
38379;SDS011;38377;47.418;18.882;2022-12-13T04:10:23;27.50;;;14.93;;
38379;SDS011;38377;47.418;18.882;2022-12-13T04:12:49;29.00;;;15.37;;
38379;SDS011;38377;47.418;18.882;2022-12-13T04:15:33;24.07;;;14.03;;
38379;SDS011;38377;47.418;18.882;2022-12-13T04:17:59;29.57;;;15.50;;
38379;SDS011;38377;47.418;18.882;2022-12-13T04:20:25;28.47;;;16.10;;
38379;SDS011;38377;47.418;18.882;2022-12-13T04:22:50;26.30;;;14.17;;
38379;SDS011;38377;47.418;18.882;2022-12-13T04:25:16;28.07;;;15.50;;
38379;SDS011;38377;47.418;18.882;2022-12-13T04:27:43;29.77;;;15.13;;
38379;SDS011;38377;47.418;18.882;2022-12-13T04:30:09;27.90;;;14.77;;
38379;SDS011;38377;47.418;18.882;2022-12-13T04:32:35;29.87;;;15.87;;
38379;SDS011;38377;47.418;18.882;2022-12-13T04:35:01;27.97;;;15.33;;
38379;SDS011;38377;47.418;18.882;2022-12-13T04:37:27;28.53;;;14.27;;
38379;SDS011;38377;47.418;18.882;2022-12-13T04:39:53;28.17;;;15.67;;
38379;SDS011;38377;47.418;18.882;2022-12-13T04:42:19;26.43;;;15.57;;
38379;SDS011;38377;47.418;18.882;2022-12-13T04:44:44;26.87;;;14.90;;
38379;SDS011;38377;47.418;18.882;2022-12-13T04:47:10;29.93;;;14.77;;
38379;SDS011;38377;47.418;18.882;2022-12-13T04:49:35;26.70;;;15.07;;
38379;SDS011;38377;47.418;18.882;2022-12-13T04:52:01;26.83;;;13.00;;
38379;SDS011;38377;47.418;18.882;2022-12-13T04:54:28;32.33;;;16.57;;
38379;SDS011;38377;47.418;18.882;2022-12-13T04:56:56;27.17;;;14.97;;
38379;SDS011;38377;47.418;18.882;2022-12-13T04:59:22;28.50;;;14.90;;
38379;SDS011;38377;47.418;18.882;2022-12-13T05:01:48;28.50;;;14.90;;
38379;SDS011;38377;47.418;18.882;2022-12-13T05:04:13;28.40;;;15.33;;
38379;SDS011;38377;47.418;18.882;2022-12-13T05:06:39;25.87;;;14.83;;
38379;SDS011;38377;47.418;18.882;2022-12-13T05:09:05;29.37;;;15.10;;
38379;SDS011;38377;47.418;18.882;2022-12-13T05:11:31;26.13;;;14.70;;
38379;SDS011;38377;47.418;18.882;2022-12-13T05:13:57;29.43;;;14.73;;
38379;SDS011;38377;47.418;18.882;2022-12-13T05:16:23;25.60;;;14.67;;
38379;SDS011;38377;47.418;18.882;2022-12-13T05:18:49;31.17;;;15.23;;
38379;SDS011;38377;47.418;18.882;2022-12-13T05:21:14;29.97;;;15.20;;
38379;SDS011;38377;47.418;18.882;2022-12-13T05:23:40;31.03;;;16.93;;
38379;SDS011;38377;47.418;18.882;2022-12-13T05:26:06;32.53;;;16.70;;
38379;SDS011;38377;47.418;18.882;2022-12-13T05:28:31;27.87;;;14.87;;
38379;SDS011;38377;47.418;18.882;2022-12-13T05:30:58;30.60;;;16.33;;
38379;SDS011;38377;47.418;18.882;2022-12-13T05:33:33;34.47;;;16.00;;
38379;SDS011;38377;47.418;18.882;2022-12-13T05:35:59;31.30;;;16.13;;
38379;SDS011;38377;47.418;18.882;2022-12-13T05:38:25;34.47;;;17.23;;
38379;SDS011;38377;47.418;18.882;2022-12-13T05:40:51;33.00;;;17.57;;
38379;SDS011;38377;47.418;18.882;2022-12-13T05:43:16;35.03;;;17.10;;
38379;SDS011;38377;47.418;18.882;2022-12-13T05:45:42;36.50;;;19.23;;
38379;SDS011;38377;47.418;18.882;2022-12-13T05:48:08;33.07;;;18.43;;
38379;SDS011;38377;47.418;18.882;2022-12-13T05:50:34;33.60;;;18.83;;
38379;SDS011;38377;47.418;18.882;2022-12-13T05:53:02;47.17;;;23.00;;
38379;SDS011;38377;47.418;18.882;2022-12-13T05:55:28;44.20;;;21.77;;
38379;SDS011;38377;47.418;18.882;2022-12-13T05:57:54;48.80;;;23.20;;
38379;SDS011;38377;47.418;18.882;2022-12-13T06:00:20;59.43;;;27.00;;
38379;SDS011;38377;47.418;18.882;2022-12-13T06:02:45;63.83;;;29.20;;
38379;SDS011;38377;47.418;18.882;2022-12-13T06:05:11;77.07;;;38.77;;
38379;SDS011;38377;47.418;18.882;2022-12-13T06:07:37;69.97;;;32.57;;
38379;SDS011;38377;47.418;18.882;2022-12-13T06:10:04;61.77;;;29.23;;
38379;SDS011;38377;47.418;18.882;2022-12-13T06:12:30;49.43;;;25.87;;
38379;SDS011;38377;47.418;18.882;2022-12-13T06:14:58;52.50;;;25.50;;
38379;SDS011;38377;47.418;18.882;2022-12-13T06:17:24;46.33;;;25.10;;
38379;SDS011;38377;47.418;18.882;2022-12-13T06:19:50;45.53;;;23.40;;
38379;SDS011;38377;47.418;18.882;2022-12-13T06:22:16;65.67;;;34.07;;
38379;SDS011;38377;47.418;18.882;2022-12-13T06:24:42;68.33;;;35.57;;
38379;SDS011;38377;47.418;18.882;2022-12-13T06:27:08;69.67;;;34.50;;
38379;SDS011;38377;47.418;18.882;2022-12-13T06:29:34;81.53;;;35.27;;
38379;SDS011;38377;47.418;18.882;2022-12-13T06:32:00;75.33;;;36.77;;
38379;SDS011;38377;47.418;18.882;2022-12-13T06:34:27;72.17;;;35.30;;
38379;SDS011;38377;47.418;18.882;2022-12-13T06:36:54;68.33;;;32.77;;
38379;SDS011;38377;47.418;18.882;2022-12-13T06:39:19;64.97;;;34.27;;
38379;SDS011;38377;47.418;18.882;2022-12-13T06:41:45;59.97;;;31.10;;
38379;SDS011;38377;47.418;18.882;2022-12-13T06:44:11;63.83;;;31.17;;
38379;SDS011;38377;47.418;18.882;2022-12-13T06:46:37;65.40;;;32.27;;
38379;SDS011;38377;47.418;18.882;2022-12-13T06:49:03;55.03;;;29.10;;
38379;SDS011;38377;47.418;18.882;2022-12-13T06:51:29;48.43;;;24.73;;
38379;SDS011;38377;47.418;18.882;2022-12-13T06:53:54;46.67;;;22.60;;
38379;SDS011;38377;47.418;18.882;2022-12-13T06:56:20;38.53;;;21.20;;
38379;SDS011;38377;47.418;18.882;2022-12-13T06:58:47;37.73;;;19.90;;
38379;SDS011;38377;47.418;18.882;2022-12-13T07:01:14;42.67;;;19.07;;
38379;SDS011;38377;47.418;18.882;2022-12-13T07:03:41;43.73;;;18.27;;
38379;SDS011;38377;47.418;18.882;2022-12-13T07:06:17;36.37;;;19.40;;
38379;SDS011;38377;47.418;18.882;2022-12-13T07:08:48;33.53;;;18.80;;
38379;SDS011;38377;47.418;18.882;2022-12-13T07:13:42;53.17;;;18.60;;
38379;SDS011;38377;47.418;18.882;2022-12-13T07:16:08;37.07;;;17.43;;
38379;SDS011;38377;47.418;18.882;2022-12-13T07:18:34;33.80;;;17.30;;
38379;SDS011;38377;47.418;18.882;2022-12-13T07:21:02;31.57;;;16.80;;
38379;SDS011;38377;47.418;18.882;2022-12-13T07:23:29;28.03;;;16.70;;
38379;SDS011;38377;47.418;18.882;2022-12-13T07:25:55;30.47;;;16.30;;
38379;SDS011;38377;47.418;18.882;2022-12-13T07:28:20;28.73;;;16.13;;
38379;SDS011;38377;47.418;18.882;2022-12-13T07:30:46;31.80;;;16.93;;
38379;SDS011;38377;47.418;18.882;2022-12-13T07:33:13;31.70;;;16.57;;
38379;SDS011;38377;47.418;18.882;2022-12-13T07:35:39;29.27;;;16.67;;
38379;SDS011;38377;47.418;18.882;2022-12-13T07:38:06;29.13;;;17.13;;
38379;SDS011;38377;47.418;18.882;2022-12-13T07:40:33;31.40;;;16.87;;
38379;SDS011;38377;47.418;18.882;2022-12-13T07:42:59;25.13;;;15.27;;
38379;SDS011;38377;47.418;18.882;2022-12-13T07:45:25;28.93;;;15.03;;
38379;SDS011;38377;47.418;18.882;2022-12-13T07:47:51;24.93;;;14.13;;
38379;SDS011;38377;47.418;18.882;2022-12-13T07:50:17;23.30;;;15.40;;
38379;SDS011;38377;47.418;18.882;2022-12-13T07:52:45;25.37;;;14.60;;
38379;SDS011;38377;47.418;18.882;2022-12-13T07:55:14;23.35;;;13.90;;
38379;SDS011;38377;47.418;18.882;2022-12-13T07:57:42;21.33;;;12.67;;
38379;SDS011;38377;47.418;18.882;2022-12-13T08:00:08;24.87;;;13.77;;
38379;SDS011;38377;47.418;18.882;2022-12-13T08:02:35;21.87;;;12.77;;
38379;SDS011;38377;47.418;18.882;2022-12-13T08:05:00;23.67;;;13.47;;
38379;SDS011;38377;47.418;18.882;2022-12-13T08:07:26;22.87;;;12.87;;
38379;SDS011;38377;47.418;18.882;2022-12-13T08:09:52;22.33;;;12.83;;
38379;SDS011;38377;47.418;18.882;2022-12-13T08:12:19;20.90;;;12.57;;
38379;SDS011;38377;47.418;18.882;2022-12-13T08:14:45;21.97;;;12.43;;
38379;SDS011;38377;47.418;18.882;2022-12-13T08:17:11;23.93;;;13.73;;
38379;SDS011;38377;47.418;18.882;2022-12-13T08:19:37;21.67;;;13.63;;
38379;SDS011;38377;47.418;18.882;2022-12-13T08:22:02;22.27;;;13.80;;
38379;SDS011;38377;47.418;18.882;2022-12-13T08:24:29;22.10;;;13.60;;
38379;SDS011;38377;47.418;18.882;2022-12-13T08:26:59;22.87;;;14.00;;
38379;SDS011;38377;47.418;18.882;2022-12-13T08:29:26;20.92;;;12.68;;
38379;SDS011;38377;47.418;18.882;2022-12-13T08:31:52;23.13;;;13.80;;
38379;SDS011;38377;47.418;18.882;2022-12-13T08:34:17;22.83;;;14.13;;
38379;SDS011;38377;47.418;18.882;2022-12-13T08:36:43;20.17;;;13.30;;
38379;SDS011;38377;47.418;18.882;2022-12-13T08:39:09;21.87;;;13.60;;
38379;SDS011;38377;47.418;18.882;2022-12-13T08:41:35;20.87;;;12.03;;
38379;SDS011;38377;47.418;18.882;2022-12-13T08:44:01;18.03;;;11.53;;
38379;SDS011;38377;47.418;18.882;2022-12-13T08:46:26;20.47;;;12.07;;
38379;SDS011;38377;47.418;18.882;2022-12-13T08:48:52;17.37;;;12.20;;
38379;SDS011;38377;47.418;18.882;2022-12-13T08:51:18;18.23;;;11.80;;
38379;SDS011;38377;47.418;18.882;2022-12-13T08:53:48;16.90;;;10.50;;
38379;SDS011;38377;47.418;18.882;2022-12-13T08:56:15;17.93;;;10.63;;
38379;SDS011;38377;47.418;18.882;2022-12-13T08:58:42;17.33;;;11.03;;
38379;SDS011;38377;47.418;18.882;2022-12-13T09:01:08;16.17;;;10.53;;
38379;SDS011;38377;47.418;18.882;2022-12-13T09:03:35;16.73;;;11.10;;
38379;SDS011;38377;47.418;18.882;2022-12-13T09:06:08;17.53;;;11.83;;
38379;SDS011;38377;47.418;18.882;2022-12-13T09:08:37;18.23;;;10.83;;
38379;SDS011;38377;47.418;18.882;2022-12-13T09:11:03;21.20;;;11.93;;
38379;SDS011;38377;47.418;18.882;2022-12-13T09:13:30;17.97;;;11.33;;
38379;SDS011;38377;47.418;18.882;2022-12-13T09:15:57;15.67;;;10.03;;
38379;SDS011;38377;47.418;18.882;2022-12-13T09:18:27;16.73;;;9.80;;
38379;SDS011;38377;47.418;18.882;2022-12-13T09:20:52;15.87;;;10.17;;
38379;SDS011;38377;47.418;18.882;2022-12-13T09:23:18;19.70;;;12.07;;
38379;SDS011;38377;47.418;18.882;2022-12-13T09:25:44;16.10;;;8.47;;
38379;SDS011;38377;47.418;18.882;2022-12-13T09:28:16;10.90;;;7.57;;
38379;SDS011;38377;47.418;18.882;2022-12-13T09:30:42;13.00;;;8.53;;
38379;SDS011;38377;47.418;18.882;2022-12-13T09:33:07;11.73;;;7.40;;
38379;SDS011;38377;47.418;18.882;2022-12-13T09:35:33;10.77;;;7.10;;
38379;SDS011;38377;47.418;18.882;2022-12-13T09:38:01;12.60;;;8.37;;
38379;SDS011;38377;47.418;18.882;2022-12-13T09:40:27;11.60;;;7.43;;
38379;SDS011;38377;47.418;18.882;2022-12-13T09:42:54;10.43;;;7.20;;
38379;SDS011;38377;47.418;18.882;2022-12-13T09:45:21;9.03;;;6.80;;
38379;SDS011;38377;47.418;18.882;2022-12-13T09:47:48;9.73;;;6.13;;
38379;SDS011;38377;47.418;18.882;2022-12-13T09:50:25;8.93;;;5.57;;
38379;SDS011;38377;47.418;18.882;2022-12-13T09:52:51;9.10;;;6.10;;
38379;SDS011;38377;47.418;18.882;2022-12-13T09:55:18;11.83;;;7.07;;
38379;SDS011;38377;47.418;18.882;2022-12-13T09:57:45;8.47;;;5.93;;
38379;SDS011;38377;47.418;18.882;2022-12-13T10:00:13;9.23;;;6.90;;
38379;SDS011;38377;47.418;18.882;2022-12-13T10:02:42;11.27;;;6.87;;
38379;SDS011;38377;47.418;18.882;2022-12-13T10:05:21;9.13;;;6.13;;
38379;SDS011;38377;47.418;18.882;2022-12-13T10:07:53;9.60;;;6.17;;
38379;SDS011;38377;47.418;18.882;2022-12-13T10:10:22;10.60;;;6.77;;
38379;SDS011;38377;47.418;18.882;2022-12-13T10:12:51;9.77;;;6.33;;
38379;SDS011;38377;47.418;18.882;2022-12-13T10:15:38;7.90;;;5.33;;
38379;SDS011;38377;47.418;18.882;2022-12-13T10:18:07;5.80;;;3.87;;
38379;SDS011;38377;47.418;18.882;2022-12-13T10:20:38;7.97;;;5.05;;
38379;SDS011;38377;47.418;18.882;2022-12-13T10:23:05;8.77;;;5.50;;
38379;SDS011;38377;47.418;18.882;2022-12-13T10:25:42;9.57;;;6.40;;
38379;SDS011;38377;47.418;18.882;2022-12-13T10:28:08;10.90;;;6.63;;
38379;SDS011;38377;47.418;18.882;2022-12-13T10:30:39;8.53;;;6.33;;
38379;SDS011;38377;47.418;18.882;2022-12-13T10:33:16;10.40;;;7.07;;
38379;SDS011;38377;47.418;18.882;2022-12-13T10:36:04;7.43;;;6.05;;
38379;SDS011;38377;47.418;18.882;2022-12-13T10:38:53;8.63;;;5.80;;
38379;SDS011;38377;47.418;18.882;2022-12-13T10:44:11;7.97;;;5.43;;
38379;SDS011;38377;47.418;18.882;2022-12-13T10:46:58;11.13;;;6.40;;
38379;SDS011;38377;47.418;18.882;2022-12-13T10:49:53;7.35;;;5.07;;
38379;SDS011;38377;47.418;18.882;2022-12-13T10:54:50;6.37;;;3.80;;
38379;SDS011;38377;47.418;18.882;2022-12-13T10:57:17;6.33;;;4.67;;
38379;SDS011;38377;47.418;18.882;2022-12-13T10:59:43;5.93;;;3.93;;
38379;SDS011;38377;47.418;18.882;2022-12-13T11:02:31;5.77;;;4.00;;
38379;SDS011;38377;47.418;18.882;2022-12-13T11:05:23;5.33;;;3.00;;
38379;SDS011;38377;47.418;18.882;2022-12-13T11:07:51;6.27;;;4.53;;
38379;SDS011;38377;47.418;18.882;2022-12-13T11:12:45;6.07;;;4.23;;
38379;SDS011;38377;47.418;18.882;2022-12-13T11:15:18;7.33;;;4.33;;
38379;SDS011;38377;47.418;18.882;2022-12-13T11:17:54;5.43;;;3.93;;
38379;SDS011;38377;47.418;18.882;2022-12-13T11:20:23;11.47;;;7.27;;
38379;SDS011;38377;47.418;18.882;2022-12-13T11:23:03;7.00;;;5.00;;
38379;SDS011;38377;47.418;18.882;2022-12-13T11:25:43;5.78;;;4.18;;
38379;SDS011;38377;47.418;18.882;2022-12-13T11:36:19;7.13;;;4.13;;
38379;SDS011;38377;47.418;18.882;2022-12-13T11:42:00;7.00;;;4.53;;
38379;SDS011;38377;47.418;18.882;2022-12-13T11:47:03;6.93;;;4.90;;
38379;SDS011;38377;47.418;18.882;2022-12-13T11:49:40;6.03;;;4.43;;
38379;SDS011;38377;47.418;18.882;2022-12-13T11:52:16;8.00;;;5.60;;
38379;SDS011;38377;47.418;18.882;2022-12-13T11:55:15;7.57;;;5.07;;
38379;SDS011;38377;47.418;18.882;2022-12-13T11:57:56;8.87;;;5.43;;
38379;SDS011;38377;47.418;18.882;2022-12-13T12:03:01;8.55;;;5.82;;
38379;SDS011;38377;47.418;18.882;2022-12-13T12:05:32;8.60;;;5.47;;
38379;SDS011;38377;47.418;18.882;2022-12-13T12:08:04;9.53;;;5.33;;
38379;SDS011;38377;47.418;18.882;2022-12-13T12:10:32;8.43;;;6.10;;
38379;SDS011;38377;47.418;18.882;2022-12-13T12:13:22;9.90;;;6.80;;
38379;SDS011;38377;47.418;18.882;2022-12-13T12:18:44;9.15;;;5.85;;
38379;SDS011;38377;47.418;18.882;2022-12-13T12:31:45;8.77;;;6.00;;
38379;SDS011;38377;47.418;18.882;2022-12-13T12:44:54;10.63;;;7.03;;
38379;SDS011;38377;47.418;18.882;2022-12-13T12:47:33;10.67;;;7.37;;
38379;SDS011;38377;47.418;18.882;2022-12-13T12:53:09;11.40;;;7.13;;
38379;SDS011;38377;47.418;18.882;2022-12-13T13:04:20;9.43;;;6.47;;
38379;SDS011;38377;47.418;18.882;2022-12-13T13:06:56;9.57;;;6.43;;
38379;SDS011;38377;47.418;18.882;2022-12-13T13:09:26;11.93;;;6.60;;
38379;SDS011;38377;47.418;18.882;2022-12-13T13:11:54;11.63;;;6.53;;
38379;SDS011;38377;47.418;18.882;2022-12-13T13:16:57;12.27;;;6.47;;
38379;SDS011;38377;47.418;18.882;2022-12-13T13:21:56;8.63;;;6.30;;
38379;SDS011;38377;47.418;18.882;2022-12-13T13:24:24;9.60;;;6.63;;
38379;SDS011;38377;47.418;18.882;2022-12-13T13:29:37;11.17;;;6.77;;
38379;SDS011;38377;47.418;18.882;2022-12-13T13:34:37;7.83;;;5.70;;
38379;SDS011;38377;47.418;18.882;2022-12-13T13:43:00;9.40;;;5.88;;
38379;SDS011;38377;47.418;18.882;2022-12-13T13:46:11;9.63;;;6.65;;
38379;SDS011;38377;47.418;18.882;2022-12-13T13:57:18;10.67;;;6.77;;
38379;SDS011;38377;47.418;18.882;2022-12-13T14:08:30;12.03;;;8.43;;
38379;SDS011;38377;47.418;18.882;2022-12-13T14:11:23;14.97;;;10.00;;
38379;SDS011;38377;47.418;18.882;2022-12-13T14:30:15;15.77;;;7.93;;
38379;SDS011;38377;47.418;18.882;2022-12-13T14:32:45;14.23;;;7.97;;
38379;SDS011;38377;47.418;18.882;2022-12-13T14:35:22;14.00;;;8.77;;
38379;SDS011;38377;47.418;18.882;2022-12-13T14:37:54;15.40;;;9.27;;
38379;SDS011;38377;47.418;18.882;2022-12-13T14:43:00;17.17;;;9.83;;
38379;SDS011;38377;47.418;18.882;2022-12-13T14:45:27;15.60;;;10.33;;
38379;SDS011;38377;47.418;18.882;2022-12-13T14:48:04;21.60;;;13.00;;
38379;SDS011;38377;47.418;18.882;2022-12-13T14:50:35;20.47;;;13.20;;
38379;SDS011;38377;47.418;18.882;2022-12-13T14:53:03;20.97;;;12.57;;
38379;SDS011;38377;47.418;18.882;2022-12-13T14:55:31;25.70;;;15.97;;
38379;SDS011;38377;47.418;18.882;2022-12-13T14:58:01;26.17;;;15.10;;
38379;SDS011;38377;47.418;18.882;2022-12-13T15:00:39;22.13;;;13.37;;
38379;SDS011;38377;47.418;18.882;2022-12-13T15:03:05;23.73;;;14.60;;
38379;SDS011;38377;47.418;18.882;2022-12-13T15:05:39;28.37;;;16.87;;
38379;SDS011;38377;47.418;18.882;2022-12-13T15:08:08;33.37;;;18.30;;
38379;SDS011;38377;47.418;18.882;2022-12-13T15:10:42;30.20;;;19.67;;
38379;SDS011;38377;47.418;18.882;2022-12-13T15:13:45;34.73;;;20.00;;
38379;SDS011;38377;47.418;18.882;2022-12-13T15:19:03;35.43;;;16.33;;
38379;SDS011;38377;47.418;18.882;2022-12-13T15:21:38;29.93;;;16.67;;
38379;SDS011;38377;47.418;18.882;2022-12-13T15:24:04;24.37;;;14.70;;
38379;SDS011;38377;47.418;18.882;2022-12-13T15:26:31;31.47;;;16.33;;
38379;SDS011;38377;47.418;18.882;2022-12-13T15:29:04;29.73;;;16.80;;
38379;SDS011;38377;47.418;18.882;2022-12-13T15:31:32;31.03;;;17.93;;
38379;SDS011;38377;47.418;18.882;2022-12-13T15:37:14;28.70;;;17.47;;
38379;SDS011;38377;47.418;18.882;2022-12-13T15:39:44;31.23;;;18.07;;
38379;SDS011;38377;47.418;18.882;2022-12-13T15:42:15;26.77;;;17.60;;
38379;SDS011;38377;47.418;18.882;2022-12-13T15:44:55;30.17;;;18.27;;
38379;SDS011;38377;47.418;18.882;2022-12-13T15:47:24;31.30;;;19.40;;
38379;SDS011;38377;47.418;18.882;2022-12-13T15:49:51;32.60;;;19.33;;
38379;SDS011;38377;47.418;18.882;2022-12-13T15:54:59;33.97;;;19.55;;
38379;SDS011;38377;47.418;18.882;2022-12-13T15:57:28;31.63;;;18.43;;
38379;SDS011;38377;47.418;18.882;2022-12-13T16:02:28;34.23;;;19.90;;
38379;SDS011;38377;47.418;18.882;2022-12-13T16:05:03;37.27;;;20.80;;
38379;SDS011;38377;47.418;18.882;2022-12-13T16:07:34;41.33;;;22.67;;
38379;SDS011;38377;47.418;18.882;2022-12-13T16:10:04;37.95;;;21.75;;
38379;SDS011;38377;47.418;18.882;2022-12-13T16:12:34;43.07;;;23.13;;
38379;SDS011;38377;47.418;18.882;2022-12-13T16:17:52;42.93;;;24.57;;
38379;SDS011;38377;47.418;18.882;2022-12-13T16:20:20;40.97;;;24.20;;
38379;SDS011;38377;47.418;18.882;2022-12-13T16:22:47;42.57;;;25.00;;
38379;SDS011;38377;47.418;18.882;2022-12-13T16:25:14;45.87;;;25.57;;
38379;SDS011;38377;47.418;18.882;2022-12-13T16:27:41;44.50;;;26.03;;
38379;SDS011;38377;47.418;18.882;2022-12-13T16:30:12;46.33;;;26.13;;
38379;SDS011;38377;47.418;18.882;2022-12-13T16:32:49;42.73;;;26.60;;
38379;SDS011;38377;47.418;18.882;2022-12-13T16:35:15;45.23;;;27.33;;
38379;SDS011;38377;47.418;18.882;2022-12-13T16:37:41;40.70;;;24.60;;
38379;SDS011;38377;47.418;18.882;2022-12-13T16:42:48;47.85;;;25.20;;
38379;SDS011;38377;47.418;18.882;2022-12-13T16:45:14;40.10;;;24.87;;
38379;SDS011;38377;47.418;18.882;2022-12-13T16:47:39;48.87;;;27.10;;
38379;SDS011;38377;47.418;18.882;2022-12-13T16:50:09;45.03;;;27.43;;
38379;SDS011;38377;47.418;18.882;2022-12-13T16:52:39;45.77;;;25.73;;
38379;SDS011;38377;47.418;18.882;2022-12-13T16:55:05;52.57;;;27.17;;
38379;SDS011;38377;47.418;18.882;2022-12-13T16:57:31;47.83;;;27.87;;
38379;SDS011;38377;47.418;18.882;2022-12-13T16:59:57;44.53;;;27.00;;
38379;SDS011;38377;47.418;18.882;2022-12-13T17:02:22;47.53;;;26.53;;
38379;SDS011;38377;47.418;18.882;2022-12-13T17:04:48;52.07;;;27.73;;
38379;SDS011;38377;47.418;18.882;2022-12-13T17:07:14;49.20;;;29.00;;
38379;SDS011;38377;47.418;18.882;2022-12-13T17:09:40;51.93;;;29.30;;
38379;SDS011;38377;47.418;18.882;2022-12-13T17:12:07;56.93;;;29.83;;